Time;durP1;ratioP1;P1;durP2;ratioP2;P2;SDS_P1;SDS_P2;PMS_P1;PMS_P2;Temp;Humidity;BMP_temperature;BMP_pressure;BME280_temperature;BME280_humidity;BME280_pressure;Samples;Min_cycle;Max_cycle;Signal;HPM_P1;HPM_P2
2023/04/22 00:00:50;;;;;;;;;;;6.20;99.90;;;;;;5027384;28;19920;-60
2023/04/22 00:03:16;;;;;;;;;;;6.20;99.90;;;;;;5027791;28;20022;-60
2023/04/22 00:05:43;;;;;;;;;;;6.30;99.90;;;;;;5028687;28;19996;-60
2023/04/22 00:08:09;;;;;;;;;;;6.30;99.90;;;;;;5030318;28;20071;-60
2023/04/22 00:10:34;;;;;;;;;;;6.40;99.90;;;;;;5028439;28;20390;-60
2023/04/22 00:13:00;;;;;;;;;;;6.40;99.90;;;;;;5024499;28;19921;-62
2023/04/22 00:15:25;;;;;;;;;;;6.20;99.90;;;;;;5027532;28;20285;-61
2023/04/22 00:17:51;;;;;;;;;;;6.20;99.90;;;;;;5030055;28;19913;-61
2023/04/22 00:20:20;;;;;;;;;;;6.30;99.90;;;;;;5027397;28;19914;-60
2023/04/22 00:22:45;;;;;;;;;;;6.40;99.90;;;;;;5026300;28;19913;-60
2023/04/22 00:25:11;;;;;;;;;;;6.40;99.90;;;;;;5024833;28;19936;-61
2023/04/22 00:27:37;;;;;;;;;;;6.40;99.90;;;;;;5022978;28;20297;-61
2023/04/22 00:30:02;;;;;;;;;;;6.40;99.90;;;;;;5028344;28;19921;-61
2023/04/22 00:32:28;;;;;;;;;;;6.40;99.90;;;;;;5027914;28;19920;-61
2023/04/22 00:34:54;;;;;;;;;;;6.40;99.90;;;;;;5028534;28;19913;-60
2023/04/22 00:37:20;;;;;;;;;;;6.40;99.90;;;;;;5028761;28;19913;-61
2023/04/22 00:39:46;;;;;;;;;;;6.50;99.90;;;;;;5023873;28;20004;-62
2023/04/22 00:42:12;;;;;;;;;;;6.50;99.90;;;;;;5022270;28;19913;-61
2023/04/22 00:44:39;;;;;;;;;;;6.40;99.90;;;;;;5027622;28;19921;-60
2023/04/22 00:47:05;;;;;;;;;;;6.40;99.90;;;;;;5029489;28;19913;-59
2023/04/22 00:49:31;;;;;;;;;;;6.40;99.90;;;;;;5017833;28;19936;-59
2023/04/22 00:51:56;;;;;;;;;;;6.40;99.90;;;;;;5030722;28;20383;-60
2023/04/22 00:54:22;;;;;;;;;;;6.50;99.90;;;;;;5026568;28;20590;-60
2023/04/22 00:56:48;;;;;;;;;;;6.50;99.90;;;;;;5026923;28;19946;-58
2023/04/22 00:59:13;;;;;;;;;;;6.50;99.90;;;;;;5016042;28;20289;-60
2023/04/22 01:01:39;;;;;;;;;;;6.50;99.90;;;;;;5026980;28;19913;-60
2023/04/22 01:04:05;;;;;;;;;;;6.40;99.90;;;;;;5029851;28;19960;-60
2023/04/22 01:06:31;;;;;;;;;;;6.40;99.90;;;;;;5019083;28;19913;-61
2023/04/22 01:08:57;;;;;;;;;;;6.40;99.90;;;;;;5028735;28;20360;-60
2023/04/22 01:11:23;;;;;;;;;;;6.40;99.90;;;;;;5027360;28;19936;-60
2023/04/22 01:13:49;;;;;;;;;;;6.40;99.90;;;;;;5020390;28;20350;-60
2023/04/22 01:16:15;;;;;;;;;;;6.40;99.90;;;;;;5027129;28;19913;-60
2023/04/22 01:18:40;;;;;;;;;;;6.30;99.90;;;;;;5021344;28;20493;-60
2023/04/22 01:21:06;;;;;;;;;;;6.40;99.90;;;;;;5024423;28;19913;-61
2023/04/22 01:23:32;;;;;;;;;;;6.30;99.90;;;;;;5021496;28;20332;-60
2023/04/22 01:25:58;;;;;;;;;;;6.40;99.90;;;;;;5026080;28;19936;-60
2023/04/22 01:28:24;;;;;;;;;;;6.30;99.90;;;;;;5020855;28;19944;-61
2023/04/22 01:30:51;;;;;;;;;;;6.40;99.90;;;;;;5027703;28;19921;-61
2023/04/22 01:33:16;;;;;;;;;;;6.40;99.90;;;;;;5027958;28;20356;-61
2023/04/22 01:35:44;;;;;;;;;;;6.40;99.90;;;;;;5027904;28;19913;-60
2023/04/22 01:38:10;;;;;;;;;;;6.50;99.90;;;;;;5023933;28;19936;-60
2023/04/22 01:40:36;;;;;;;;;;;6.50;99.90;;;;;;5026891;28;20419;-61
2023/04/22 01:43:02;;;;;;;;;;;6.50;99.90;;;;;;5024920;28;19913;-60
2023/04/22 01:45:27;;;;;;;;;;;6.50;99.90;;;;;;5024158;28;20066;-61
2023/04/22 01:47:53;;;;;;;;;;;6.50;99.90;;;;;;5027955;28;20487;-61
2023/04/22 01:50:19;;;;;;;;;;;6.50;99.90;;;;;;5021447;28;19917;-60
2023/04/22 01:52:45;;;;;;;;;;;6.50;99.90;;;;;;5022728;28;19918;-61
2023/04/22 01:55:10;;;;;;;;;;;6.50;99.90;;;;;;5028709;28;19931;-59
2023/04/22 01:57:36;;;;;;;;;;;6.50;99.90;;;;;;5021367;28;19913;-61
2023/04/22 02:00:02;;;;;;;;;;;6.50;99.90;;;;;;5029097;28;19964;-61
2023/04/22 02:02:28;;;;;;;;;;;6.50;99.90;;;;;;5018884;28;19917;-61
2023/04/22 02:04:53;;;;;;;;;;;6.40;99.90;;;;;;5014127;28;19959;-61
2023/04/22 02:07:19;;;;;;;;;;;6.40;99.90;;;;;;5024371;28;20000;-60
2023/04/22 02:09:44;;;;;;;;;;;6.40;99.90;;;;;;5024500;28;19928;-60
2023/04/22 02:12:10;;;;;;;;;;;6.30;99.90;;;;;;5018324;28;20384;-60
2023/04/22 02:14:36;;;;;;;;;;;6.20;99.90;;;;;;5024323;28;20281;-60
2023/04/22 02:17:02;;;;;;;;;;;6.20;99.90;;;;;;5020263;28;19921;-59
2023/04/22 02:19:27;;;;;;;;;;;6.10;99.90;;;;;;5021970;28;19913;-60
2023/04/22 02:21:53;;;;;;;;;;;6.10;99.90;;;;;;5020761;28;20018;-60
2023/04/22 02:24:19;;;;;;;;;;;6.00;99.90;;;;;;5019833;28;20008;-60
2023/04/22 02:26:46;;;;;;;;;;;5.90;99.90;;;;;;5022237;28;19913;-57
2023/04/22 02:29:11;;;;;;;;;;;5.90;99.90;;;;;;5020905;28;20284;-59
2023/04/22 02:31:37;;;;;;;;;;;5.90;99.90;;;;;;5022576;28;20011;-60
2023/04/22 02:34:03;;;;;;;;;;;5.90;99.90;;;;;;5031849;28;19913;-59
2023/04/22 02:36:29;;;;;;;;;;;5.90;99.90;;;;;;5019398;28;20004;-60
2023/04/22 02:38:54;;;;;;;;;;;5.90;99.90;;;;;;5031774;28;19913;-60
2023/04/22 02:41:20;;;;;;;;;;;5.90;99.90;;;;;;5023784;28;19921;-59
2023/04/22 02:43:45;;;;;;;;;;;5.90;99.90;;;;;;5030537;28;19932;-60
2023/04/22 02:46:12;;;;;;;;;;;5.90;99.90;;;;;;5030114;28;19920;-60
2023/04/22 02:48:38;;;;;;;;;;;5.90;99.90;;;;;;5016781;28;19921;-60
2023/04/22 02:51:05;;;;;;;;;;;5.90;99.90;;;;;;5028966;28;19925;-59
2023/04/22 02:53:30;;;;;;;;;;;5.90;99.90;;;;;;5029664;28;20383;-59
2023/04/22 02:55:57;;;;;;;;;;;5.90;99.90;;;;;;5031766;28;20000;-61
2023/04/22 02:58:25;;;;;;;;;;;5.80;99.90;;;;;;5020661;28;19913;-60
2023/04/22 03:00:50;;;;;;;;;;;5.70;99.90;;;;;;5025230;28;19913;-60
2023/04/22 03:03:16;;;;;;;;;;;5.60;99.90;;;;;;5030439;28;19932;-59
2023/04/22 03:05:41;;;;;;;;;;;5.50;99.90;;;;;;5024352;28;20331;-60
2023/04/22 03:08:07;;;;;;;;;;;5.40;99.90;;;;;;5028719;28;20353;-60
2023/04/22 03:10:32;;;;;;;;;;;5.40;99.90;;;;;;5029326;28;19968;-60
2023/04/22 03:12:58;;;;;;;;;;;5.40;99.90;;;;;;5027105;28;19913;-60
2023/04/22 03:15:24;;;;;;;;;;;5.40;99.90;;;;;;5028471;28;19999;-60
2023/04/22 03:17:49;;;;;;;;;;;5.40;99.90;;;;;;5032318;28;19913;-60
2023/04/22 03:20:15;;;;;;;;;;;5.30;99.90;;;;;;5028197;28;20348;-60
2023/04/22 03:22:41;;;;;;;;;;;5.30;99.90;;;;;;5029386;28;19913;-60
2023/04/22 03:25:07;;;;;;;;;;;5.30;99.90;;;;;;5032166;28;20361;-60
2023/04/22 03:27:32;;;;;;;;;;;5.40;99.90;;;;;;5025023;28;19917;-60
2023/04/22 03:29:58;;;;;;;;;;;5.40;99.90;;;;;;5030651;28;19940;-61
2023/04/22 03:32:24;;;;;;;;;;;5.50;99.90;;;;;;5029676;28;19925;-60
2023/04/22 03:34:49;;;;;;;;;;;5.50;99.90;;;;;;5024139;28;19929;-61
2023/04/22 03:37:15;;;;;;;;;;;5.70;99.90;;;;;;5024333;28;20407;-61
2023/04/22 03:39:40;;;;;;;;;;;5.70;99.90;;;;;;5021062;28;20353;-60
2023/04/22 03:42:06;;;;;;;;;;;5.70;99.90;;;;;;5019372;28;20009;-60
2023/04/22 03:44:32;;;;;;;;;;;5.70;99.90;;;;;;5023582;28;19924;-60
2023/04/22 03:46:57;;;;;;;;;;;5.80;99.90;;;;;;5028468;28;19947;-60
2023/04/22 03:49:23;;;;;;;;;;;5.80;99.90;;;;;;5028626;28;19928;-60
2023/04/22 03:51:48;;;;;;;;;;;5.90;99.90;;;;;;5021315;28;19917;-60
2023/04/22 03:54:14;;;;;;;;;;;5.90;99.90;;;;;;5029300;28;20361;-60
2023/04/22 03:56:40;;;;;;;;;;;5.80;99.90;;;;;;5029201;28;19920;-60
2023/04/22 03:59:05;;;;;;;;;;;5.90;99.90;;;;;;5029631;28;19992;-59
2023/04/22 04:01:31;;;;;;;;;;;5.90;99.90;;;;;;5028726;28;20388;-60
2023/04/22 04:03:56;;;;;;;;;;;5.90;99.90;;;;;;5031753;28;19973;-60
2023/04/22 04:06:22;;;;;;;;;;;5.80;99.90;;;;;;5029759;28;20287;-60
2023/04/22 04:08:48;;;;;;;;;;;5.90;99.90;;;;;;5029163;28;19913;-62
2023/04/22 04:11:13;;;;;;;;;;;6.00;99.90;;;;;;5023466;28;19925;-61
2023/04/22 04:13:39;;;;;;;;;;;6.00;99.90;;;;;;5029104;28;20276;-61
2023/04/22 04:16:05;;;;;;;;;;;6.00;99.90;;;;;;5029123;28;19909;-60
2023/04/22 04:18:31;;;;;;;;;;;6.00;99.90;;;;;;5028467;28;19914;-62
2023/04/22 04:20:57;;;;;;;;;;;6.00;99.90;;;;;;5027551;28;19913;-60
2023/04/22 04:23:22;;;;;;;;;;;6.00;99.90;;;;;;5022941;28;19913;-61
2023/04/22 04:25:48;;;;;;;;;;;6.00;99.90;;;;;;5029624;28;19961;-60
2023/04/22 04:28:14;;;;;;;;;;;6.00;99.90;;;;;;5026402;28;20020;-60
2023/04/22 04:30:40;;;;;;;;;;;6.10;99.90;;;;;;5027427;28;20024;-60
2023/04/22 04:33:07;;;;;;;;;;;6.10;99.90;;;;;;5025416;28;19913;-60
2023/04/22 04:35:34;;;;;;;;;;;6.20;99.90;;;;;;5026910;28;19921;-61
2023/04/22 04:38:00;;;;;;;;;;;6.20;99.90;;;;;;5027722;28;20288;-60
2023/04/22 04:40:28;;;;;;;;;;;6.20;99.90;;;;;;5026901;28;20008;-61
2023/04/22 04:42:54;;;;;;;;;;;6.20;99.90;;;;;;5028425;28;19917;-61
2023/04/22 04:45:21;;;;;;;;;;;6.20;99.90;;;;;;5026728;28;19913;-61
2023/04/22 04:47:49;;;;;;;;;;;6.20;99.90;;;;;;5029004;28;20419;-61
2023/04/22 04:50:15;;;;;;;;;;;6.20;99.90;;;;;;5025528;28;19929;-60
2023/04/22 04:52:40;;;;;;;;;;;6.20;99.90;;;;;;5027243;28;20445;-60
2023/04/22 04:55:06;;;;;;;;;;;6.30;99.90;;;;;;5029380;28;19917;-60
2023/04/22 04:57:32;;;;;;;;;;;6.30;99.90;;;;;;5027434;28;19919;-58
2023/04/22 04:59:57;;;;;;;;;;;6.30;99.90;;;;;;5027627;28;19940;-60
2023/04/22 05:02:23;;;;;;;;;;;6.30;99.90;;;;;;5024250;28;20274;-60
2023/04/22 05:04:48;;;;;;;;;;;6.30;99.90;;;;;;5017499;28;19913;-60
2023/04/22 05:07:14;;;;;;;;;;;6.30;99.90;;;;;;5028140;28;20357;-60
2023/04/22 05:09:40;;;;;;;;;;;6.30;99.90;;;;;;5023233;28;19921;-60
2023/04/22 05:12:05;;;;;;;;;;;6.30;99.90;;;;;;5021141;28;20353;-60
2023/04/22 05:14:31;;;;;;;;;;;6.30;99.90;;;;;;5014113;28;19913;-60
2023/04/22 05:16:57;;;;;;;;;;;6.30;99.90;;;;;;5027886;28;20007;-60
2023/04/22 05:19:22;;;;;;;;;;;6.20;99.90;;;;;;5021639;28;19914;-60
2023/04/22 05:21:48;;;;;;;;;;;6.20;99.90;;;;;;5024415;28;19913;-60
2023/04/22 05:24:14;;;;;;;;;;;6.30;99.90;;;;;;5029501;28;19928;-60
2023/04/22 05:26:39;;;;;;;;;;;6.30;99.90;;;;;;5018595;28;19939;-61
2023/04/22 05:29:06;;;;;;;;;;;6.40;99.90;;;;;;5027809;28;19913;-60
2023/04/22 05:31:32;;;;;;;;;;;6.40;99.90;;;;;;5026912;28;19928;-60
2023/04/22 05:33:58;;;;;;;;;;;6.50;99.90;;;;;;5029952;28;19913;-60
2023/04/22 05:36:26;;;;;;;;;;;6.50;99.90;;;;;;5028568;28;19917;-60
2023/04/22 05:38:52;;;;;;;;;;;6.50;99.90;;;;;;5027007;28;19960;-60
2023/04/22 05:41:17;;;;;;;;;;;6.60;99.90;;;;;;5029402;28;20359;-60
2023/04/22 05:43:43;;;;;;;;;;;6.70;99.90;;;;;;5027053;28;19951;-60
2023/04/22 05:46:08;;;;;;;;;;;6.70;99.90;;;;;;5026945;28;21995;-60
2023/04/22 05:48:34;;;;;;;;;;;6.70;99.90;;;;;;5019148;28;19923;-61
2023/04/22 05:51:00;;;;;;;;;;;6.70;99.90;;;;;;5021162;28;19925;-60
2023/04/22 05:53:25;;;;;;;;;;;6.80;99.90;;;;;;5019938;28;20297;-60
2023/04/22 05:55:52;;;;;;;;;;;6.80;99.90;;;;;;5020202;28;19955;-60
2023/04/22 05:58:17;;;;;;;;;;;6.80;99.90;;;;;;5026548;28;20404;-61
2023/04/22 06:00:43;;;;;;;;;;;6.80;99.90;;;;;;5027730;28;19956;-61
2023/04/22 06:03:08;;;;;;;;;;;6.90;99.90;;;;;;5023306;28;19921;-60
2023/04/22 06:05:34;;;;;;;;;;;6.90;99.90;;;;;;5027066;28;20277;-60
2023/04/22 06:08:00;;;;;;;;;;;6.90;99.90;;;;;;5031806;28;19960;-59
2023/04/22 06:10:25;;;;;;;;;;;6.90;99.90;;;;;;5026746;28;19917;-59
2023/04/22 06:12:51;;;;;;;;;;;6.90;99.90;;;;;;5026627;28;20393;-58
2023/04/22 06:15:16;;;;;;;;;;;6.90;99.90;;;;;;5030174;28;19928;-61
2023/04/22 06:17:43;;;;;;;;;;;7.00;99.90;;;;;;5029698;28;20736;-60
2023/04/22 06:20:09;;;;;;;;;;;7.00;99.90;;;;;;5032003;28;19913;-60
2023/04/22 06:22:35;;;;;;;;;;;7.10;99.90;;;;;;5030956;28;19917;-61
2023/04/22 06:25:00;;;;;;;;;;;7.10;99.90;;;;;;5033569;28;20384;-60
2023/04/22 06:27:26;;;;;;;;;;;7.10;99.90;;;;;;5028336;28;19913;-59
2023/04/22 06:29:52;;;;;;;;;;;7.20;99.90;;;;;;5033076;28;19928;-59
2023/04/22 06:32:17;;;;;;;;;;;7.20;99.90;;;;;;5026531;28;19960;-59
2023/04/22 06:34:43;;;;;;;;;;;7.20;99.90;;;;;;5025986;28;19920;-60
2023/04/22 06:37:11;;;;;;;;;;;7.30;99.90;;;;;;5023844;28;19944;-59
2023/04/22 06:39:37;;;;;;;;;;;7.30;99.90;;;;;;5024981;28;20242;-59
2023/04/22 06:42:02;;;;;;;;;;;7.40;99.90;;;;;;5027632;28;20419;-59
2023/04/22 06:44:28;;;;;;;;;;;7.50;99.90;;;;;;5028225;28;20313;-60
2023/04/22 06:46:54;;;;;;;;;;;7.50;99.90;;;;;;5023758;28;19913;-60
2023/04/22 06:49:20;;;;;;;;;;;7.50;99.90;;;;;;5021151;28;20357;-60
2023/04/22 06:51:45;;;;;;;;;;;7.50;99.90;;;;;;5027555;28;19925;-59
2023/04/22 06:54:11;;;;;;;;;;;7.60;99.90;;;;;;5024332;28;19910;-60
2023/04/22 06:56:36;;;;;;;;;;;7.60;99.90;;;;;;5020752;28;19959;-60
2023/04/22 06:59:02;;;;;;;;;;;7.70;99.90;;;;;;5024761;28;20376;-60
2023/04/22 07:01:28;;;;;;;;;;;7.70;99.90;;;;;;5030650;28;20361;-59
2023/04/22 07:03:53;;;;;;;;;;;7.70;99.90;;;;;;5022400;28;19990;-59
2023/04/22 07:06:19;;;;;;;;;;;7.70;99.90;;;;;;5031762;28;20458;-60
2023/04/22 07:08:44;;;;;;;;;;;7.70;99.90;;;;;;5025631;28;19925;-60
2023/04/22 07:11:10;;;;;;;;;;;7.90;99.90;;;;;;5026329;28;19955;-59
2023/04/22 07:13:36;;;;;;;;;;;7.90;99.90;;;;;;5023775;28;19924;-60
2023/04/22 07:16:01;;;;;;;;;;;8.10;99.90;;;;;;5023490;28;19948;-59
2023/04/22 07:18:27;;;;;;;;;;;8.20;99.90;;;;;;5027388;28;19917;-59
2023/04/22 07:20:53;;;;;;;;;;;8.30;99.90;;;;;;5025928;28;20357;-59
2023/04/22 07:23:19;;;;;;;;;;;8.50;99.90;;;;;;5027392;28;19913;-60
2023/04/22 07:25:44;;;;;;;;;;;8.50;99.90;;;;;;5030711;28;20305;-60
2023/04/22 07:28:10;;;;;;;;;;;8.50;99.90;;;;;;5021757;28;19920;-59
2023/04/22 07:30:35;;;;;;;;;;;8.50;99.90;;;;;;5029598;28;19925;-60
2023/04/22 07:33:01;;;;;;;;;;;8.40;99.90;;;;;;5025047;28;19959;-60
2023/04/22 07:35:27;;;;;;;;;;;8.40;99.90;;;;;;5021897;28;19914;-59
2023/04/22 07:37:53;;;;;;;;;;;8.40;99.90;;;;;;5029310;28;20008;-60
2023/04/22 07:40:19;;;;;;;;;;;8.50;99.90;;;;;;5022312;28;20354;-60
2023/04/22 07:42:44;;;;;;;;;;;8.60;99.90;;;;;;5025014;28;20577;-60
2023/04/22 07:45:10;;;;;;;;;;;8.70;99.90;;;;;;5031885;28;19921;-60
2023/04/22 07:47:36;;;;;;;;;;;8.90;99.90;;;;;;5029611;28;19944;-60
2023/04/22 07:50:01;;;;;;;;;;;9.10;99.90;;;;;;5025749;28;19940;-61
2023/04/22 07:52:28;;;;;;;;;;;9.20;99.90;;;;;;5025153;28;19932;-61
2023/04/22 07:54:54;;;;;;;;;;;9.40;99.90;;;;;;5021600;28;19920;-61
2023/04/22 07:57:21;;;;;;;;;;;9.50;99.90;;;;;;5017165;28;19978;-61
2023/04/22 07:59:47;;;;;;;;;;;9.60;99.90;;;;;;5021601;28;19913;-61
2023/04/22 08:02:13;;;;;;;;;;;9.60;99.90;;;;;;5027294;28;19913;-60
2023/04/22 08:04:38;;;;;;;;;;;9.70;99.90;;;;;;5025625;28;19920;-60
2023/04/22 08:07:04;;;;;;;;;;;10.00;99.90;;;;;;5028175;28;19913;-60
2023/04/22 08:09:30;;;;;;;;;;;10.20;99.90;;;;;;5026134;28;19998;-60
2023/04/22 08:11:56;;;;;;;;;;;10.50;99.90;;;;;;5029447;28;20362;-60
2023/04/22 08:14:22;;;;;;;;;;;10.90;99.90;;;;;;5022711;28;19921;-60
2023/04/22 08:16:50;;;;;;;;;;;11.00;99.90;;;;;;5021408;28;19913;-60
2023/04/22 08:19:15;;;;;;;;;;;11.20;99.90;;;;;;5019801;28;19917;-60
2023/04/22 08:21:41;;;;;;;;;;;11.20;99.90;;;;;;5028133;28;19913;-61
2023/04/22 08:24:06;;;;;;;;;;;11.20;99.90;;;;;;5030113;28;20369;-62
2023/04/22 08:26:32;;;;;;;;;;;11.20;99.90;;;;;;5028904;28;19913;-62
2023/04/22 08:28:58;;;;;;;;;;;11.20;99.90;;;;;;5022024;28;19913;-61
2023/04/22 08:31:23;;;;;;;;;;;11.20;99.90;;;;;;5030725;28;19921;-61
2023/04/22 08:33:49;;;;;;;;;;;11.20;99.90;;;;;;5029149;28;19920;-61
2023/04/22 08:36:15;;;;;;;;;;;11.30;99.90;;;;;;5025091;28;20258;-60
2023/04/22 08:38:41;;;;;;;;;;;11.50;99.90;;;;;;5013713;28;20028;-60
2023/04/22 08:41:07;;;;;;;;;;;11.60;99.90;;;;;;5021894;28;19913;-60
2023/04/22 08:43:33;;;;;;;;;;;11.70;99.90;;;;;;5023655;28;19921;-61
2023/04/22 08:45:59;;;;;;;;;;;11.90;99.90;;;;;;5028171;28;20012;-60
2023/04/22 08:48:25;;;;;;;;;;;12.00;99.90;;;;;;5028491;28;20007;-61
2023/04/22 08:50:50;;;;;;;;;;;12.10;99.90;;;;;;5019540;28;19928;-61
2023/04/22 08:53:16;;;;;;;;;;;12.30;99.90;;;;;;5021303;28;19913;-60
2023/04/22 08:55:43;;;;;;;;;;;12.40;99.90;;;;;;5017662;28;19920;-61
2023/04/22 08:58:09;;;;;;;;;;;12.50;99.90;;;;;;5019551;28;19967;-61
2023/04/22 09:00:35;;;;;;;;;;;12.60;99.90;;;;;;5020549;28;19918;-64
2023/04/22 09:03:01;;;;;;;;;;;12.60;99.90;;;;;;5026969;28;20246;-61
2023/04/22 09:05:28;;;;;;;;;;;12.50;99.90;;;;;;5023401;28;20000;-61
2023/04/22 09:07:54;;;;;;;;;;;12.50;99.90;;;;;;5022604;28;19913;-60
2023/04/22 09:10:20;;;;;;;;;;;12.40;99.90;;;;;;5025500;28;20111;-61
2023/04/22 09:12:46;;;;;;;;;;;12.40;99.90;;;;;;5019636;28;20035;-62
2023/04/22 09:15:11;;;;;;;;;;;12.40;99.90;;;;;;5027748;28;19917;-61
2023/04/22 09:17:37;;;;;;;;;;;12.40;99.90;;;;;;5022855;28;19917;-61
2023/04/22 09:20:04;;;;;;;;;;;12.40;99.90;;;;;;5017365;28;19967;-60
2023/04/22 09:22:38;;;;;;;;;;;12.50;99.90;;;;;;5027696;28;19928;-61
2023/04/22 09:25:04;;;;;;;;;;;12.70;99.90;;;;;;5021218;28;19987;-61
2023/04/22 09:27:29;;;;;;;;;;;12.80;99.90;;;;;;5016903;28;20324;-62
2023/04/22 09:29:55;;;;;;;;;;;12.70;99.90;;;;;;5023999;28;19921;-62
2023/04/22 09:32:23;;;;;;;;;;;12.60;99.90;;;;;;5021699;28;19920;-62
2023/04/22 09:34:50;;;;;;;;;;;12.70;99.90;;;;;;5023144;28;19917;-61
2023/04/22 09:37:17;;;;;;;;;;;12.60;99.90;;;;;;5024271;28;19959;-61
2023/04/22 09:39:43;;;;;;;;;;;12.40;99.90;;;;;;5025775;28;19975;-62
2023/04/22 09:42:10;;;;;;;;;;;12.30;99.90;;;;;;5027275;28;20306;-61
2023/04/22 09:44:37;;;;;;;;;;;12.40;99.90;;;;;;5025158;28;19921;-61
2023/04/22 09:47:03;;;;;;;;;;;12.30;99.90;;;;;;5027657;28;19917;-62
2023/04/22 09:49:28;;;;;;;;;;;12.50;99.90;;;;;;5022408;28;19921;-62
2023/04/22 09:51:55;;;;;;;;;;;12.40;99.90;;;;;;5024146;28;19917;-63
2023/04/22 09:54:22;;;;;;;;;;;12.60;99.90;;;;;;5023430;28;19968;-63
2023/04/22 09:56:48;;;;;;;;;;;12.70;99.90;;;;;;5024691;28;19913;-69
2023/04/22 09:59:19;;;;;;;;;;;12.90;99.90;;;;;;5015688;28;19988;-68
2023/04/22 10:01:45;;;;;;;;;;;13.20;99.90;;;;;;5024184;28;19936;-69
2023/04/22 10:04:13;;;;;;;;;;;13.70;99.90;;;;;;5029516;28;20365;-67
2023/04/22 10:06:39;;;;;;;;;;;14.10;99.90;;;;;;5029010;28;19924;-69
2023/04/22 10:09:04;;;;;;;;;;;14.30;99.90;;;;;;5028935;28;19917;-69
2023/04/22 10:11:31;;;;;;;;;;;14.50;99.90;;;;;;5027542;28;20367;-69
2023/04/22 10:13:57;;;;;;;;;;;14.60;99.90;;;;;;5024111;28;19913;-68
2023/04/22 10:16:23;;;;;;;;;;;14.80;99.90;;;;;;5034138;28;19980;-68
2023/04/22 10:18:50;;;;;;;;;;;14.80;99.90;;;;;;5026436;28;19921;-69
2023/04/22 10:21:17;;;;;;;;;;;15.00;99.90;;;;;;5033372;28;19913;-69
2023/04/22 10:23:47;;;;;;;;;;;15.10;99.90;;;;;;5028039;28;19980;-68
2023/04/22 10:26:33;;;;;;;;;;;15.10;99.90;;;;;;5019391;28;20373;-70
2023/04/22 10:28:58;;;;;;;;;;;15.00;99.90;;;;;;5024353;28;19913;-69
2023/04/22 10:31:24;;;;;;;;;;;14.60;99.90;;;;;;5031546;28;20387;-69
2023/04/22 10:34:07;;;;;;;;;;;14.40;99.90;;;;;;5017708;28;19921;-69
2023/04/22 10:36:33;;;;;;;;;;;14.10;99.90;;;;;;5029422;28;19913;-71
2023/04/22 10:38:58;;;;;;;;;;;14.20;99.90;;;;;;5031653;28;19913;-69
2023/04/22 10:41:24;;;;;;;;;;;14.00;99.90;;;;;;5031005;28;19913;-69
2023/04/22 10:43:59;;;;;;;;;;;14.00;99.90;;;;;;5016558;28;19917;-70
2023/04/22 10:46:36;;;;;;;;;;;13.90;99.90;;;;;;5027590;28;20296;-69
2023/04/22 10:49:08;;;;;;;;;;;13.80;99.90;;;;;;5029790;28;19960;-69
2023/04/22 10:51:41;;;;;;;;;;;13.90;99.90;;;;;;5014368;28;20312;-69
2023/04/22 10:54:27;;;;;;;;;;;13.80;99.90;;;;;;5033705;28;19913;-69
2023/04/22 10:57:02;;;;;;;;;;;13.90;99.90;;;;;;5011754;28;19917;-70
2023/04/22 10:59:28;;;;;;;;;;;13.90;99.90;;;;;;5024352;28;20012;-70
2023/04/22 11:01:53;;;;;;;;;;;14.30;99.90;;;;;;5027900;28;19952;-69
2023/04/22 11:04:21;;;;;;;;;;;14.70;99.90;;;;;;5030452;28;19920;-69
2023/04/22 11:07:06;;;;;;;;;;;15.20;99.90;;;;;;5030007;28;20273;-69
2023/04/22 11:09:31;;;;;;;;;;;15.50;99.90;;;;;;5030636;28;19923;-69
2023/04/22 11:12:15;;;;;;;;;;;15.70;99.90;;;;;;5032377;28;20386;-69
2023/04/22 11:14:41;;;;;;;;;;;15.60;99.90;;;;;;5025944;28;19936;-69
2023/04/22 11:17:07;;;;;;;;;;;15.60;99.90;;;;;;5031886;28;20288;-69
2023/04/22 11:19:32;;;;;;;;;;;15.70;99.90;;;;;;5027865;28;19999;-69
2023/04/22 11:21:58;;;;;;;;;;;15.90;99.90;;;;;;5030234;28;19952;-69
2023/04/22 11:24:24;;;;;;;;;;;16.00;99.90;;;;;;5023949;28;19972;-69
2023/04/22 11:26:49;;;;;;;;;;;16.00;99.90;;;;;;5017498;28;19988;-69
2023/04/22 11:29:15;;;;;;;;;;;15.80;99.90;;;;;;5027207;28;19913;-69
2023/04/22 11:31:47;;;;;;;;;;;15.70;99.90;;;;;;5029988;28;20258;-68
2023/04/22 11:34:13;;;;;;;;;;;15.50;99.90;;;;;;5028763;28;19913;-68
2023/04/22 11:36:42;;;;;;;;;;;15.70;99.90;;;;;;5029434;28;19920;-68
2023/04/22 11:39:07;;;;;;;;;;;15.80;99.90;;;;;;5031305;28;19952;-68
2023/04/22 11:41:33;;;;;;;;;;;15.80;99.90;;;;;;5029549;28;20343;-68
2023/04/22 11:44:02;;;;;;;;;;;15.60;99.90;;;;;;5019074;28;19999;-69
2023/04/22 11:46:37;;;;;;;;;;;15.90;99.90;;;;;;5026341;28;19913;-69
2023/04/22 11:49:15;;;;;;;;;;;15.90;99.90;;;;;;5024164;28;19920;-70
2023/04/22 11:51:56;;;;;;;;;;;15.70;99.90;;;;;;5024858;28;19937;-70
2023/04/22 11:54:29;;;;;;;;;;;15.90;99.90;;;;;;5025128;28;20264;-69
2023/04/22 11:56:54;;;;;;;;;;;15.90;99.90;;;;;;5021301;28;19913;-70
2023/04/22 11:59:22;;;;;;;;;;;15.80;99.90;;;;;;5020141;28;20352;-70
2023/04/22 12:01:48;;;;;;;;;;;15.80;99.90;;;;;;5014276;28;20365;-69
2023/04/22 12:04:14;;;;;;;;;;;15.60;99.90;;;;;;5019540;28;19913;-69
2023/04/22 12:06:40;;;;;;;;;;;15.70;99.90;;;;;;5021141;28;19918;-69
2023/04/22 12:09:06;;;;;;;;;;;15.70;99.90;;;;;;5008658;28;19925;-70
2023/04/22 12:11:32;;;;;;;;;;;15.60;99.90;;;;;;5018645;28;19921;-69
2023/04/22 12:14:04;;;;;;;;;;;15.60;99.90;;;;;;5017457;28;19921;-69
2023/04/22 12:16:39;;;;;;;;;;;15.50;99.90;;;;;;5020513;28;19913;-69
2023/04/22 12:19:04;;;;;;;;;;;15.40;99.90;;;;;;5021078;28;19928;-72
2023/04/22 12:21:30;;;;;;;;;;;15.60;99.90;;;;;;5023704;28;19921;-69
2023/04/22 12:24:03;;;;;;;;;;;15.60;99.90;;;;;;5017336;28;19935;-70
2023/04/22 12:26:29;;;;;;;;;;;15.40;99.90;;;;;;5017141;28;20009;-68
2023/04/22 12:28:56;;;;;;;;;;;15.30;99.90;;;;;;5021215;28;19987;-69
2023/04/22 12:31:22;;;;;;;;;;;15.20;99.90;;;;;;5021162;28;20400;-69
2023/04/22 12:33:48;;;;;;;;;;;15.10;99.90;;;;;;5018306;28;19956;-69
2023/04/22 12:36:14;;;;;;;;;;;14.90;99.90;;;;;;5023845;28;19921;-70
2023/04/22 12:38:40;;;;;;;;;;;14.70;99.90;;;;;;5020170;28;20448;-68
2023/04/22 12:41:06;;;;;;;;;;;14.90;99.90;;;;;;5016588;28;19924;-70
2023/04/22 12:43:35;;;;;;;;;;;14.90;99.90;;;;;;5019013;28;19963;-68
2023/04/22 12:46:04;;;;;;;;;;;15.00;99.90;;;;;;5022119;28;20016;-68
2023/04/22 12:48:30;;;;;;;;;;;14.80;99.90;;;;;;5017107;28;19913;-69
2023/04/22 12:50:56;;;;;;;;;;;14.70;99.90;;;;;;4999352;28;20407;-69
2023/04/22 12:53:22;;;;;;;;;;;14.70;99.90;;;;;;5021939;28;19912;-69
2023/04/22 12:55:48;;;;;;;;;;;14.50;99.90;;;;;;5019330;28;19921;-71
2023/04/22 12:58:13;;;;;;;;;;;14.30;99.90;;;;;;5018302;28;20418;-68
2023/04/22 13:00:39;;;;;;;;;;;14.20;99.90;;;;;;5020088;28;20009;-70
2023/04/22 13:03:05;;;;;;;;;;;14.30;99.90;;;;;;5023491;28;20752;-69
2023/04/22 13:05:31;;;;;;;;;;;14.20;99.90;;;;;;5018547;28;20377;-69
2023/04/22 13:07:56;;;;;;;;;;;14.30;99.90;;;;;;5020550;28;19929;-70
2023/04/22 13:10:22;;;;;;;;;;;14.30;99.90;;;;;;5019689;28;19921;-69
2023/04/22 13:12:48;;;;;;;;;;;14.50;99.90;;;;;;5012066;28;19971;-69
2023/04/22 13:15:14;;;;;;;;;;;14.80;99.90;;;;;;5019953;28;19921;-69
2023/04/22 13:17:40;;;;;;;;;;;14.80;99.90;;;;;;5020226;28;19921;-68
2023/04/22 13:20:08;;;;;;;;;;;14.80;99.90;;;;;;5021613;28;19920;-70
2023/04/22 13:22:34;;;;;;;;;;;15.00;99.90;;;;;;5022863;28;19917;-71
2023/04/22 13:25:00;;;;;;;;;;;15.20;99.90;;;;;;5020538;28;19914;-69
2023/04/22 13:27:26;;;;;;;;;;;15.60;99.90;;;;;;5018236;28;19972;-71
2023/04/22 13:29:51;;;;;;;;;;;15.60;99.90;;;;;;5018643;28;20020;-69
2023/04/22 13:32:17;;;;;;;;;;;15.70;99.90;;;;;;5025466;28;20365;-70
2023/04/22 13:34:44;;;;;;;;;;;15.80;99.90;;;;;;5018413;28;20044;-70
2023/04/22 13:37:10;;;;;;;;;;;15.90;99.90;;;;;;5022424;28;19913;-70
2023/04/22 13:39:36;;;;;;;;;;;16.20;99.90;;;;;;5016890;28;20428;-70
2023/04/22 13:42:05;;;;;;;;;;;16.40;99.90;;;;;;5020467;28;19917;-70
2023/04/22 13:44:33;;;;;;;;;;;16.60;99.90;;;;;;5020589;28;20396;-69
2023/04/22 13:47:02;;;;;;;;;;;16.80;99.90;;;;;;5022399;28;19977;-69
2023/04/22 13:49:29;;;;;;;;;;;17.10;99.90;;;;;;5015396;28;20177;-68
2023/04/22 13:51:55;;;;;;;;;;;17.30;99.90;;;;;;5020664;28;20027;-70
2023/04/22 13:54:21;;;;;;;;;;;17.90;99.90;;;;;;5020212;28;19918;-71
2023/04/22 13:56:47;;;;;;;;;;;18.30;99.90;;;;;;5019776;28;20460;-68
2023/04/22 13:59:13;;;;;;;;;;;18.30;99.90;;;;;;5017328;28;19974;-72
2023/04/22 14:01:38;;;;;;;;;;;18.80;99.90;;;;;;5019421;28;19913;-71
2023/04/22 14:04:04;;;;;;;;;;;19.10;99.90;;;;;;5020026;28;19917;-70
2023/04/22 14:06:29;;;;;;;;;;;19.50;96.10;;;;;;5017199;28;19952;-70
2023/04/22 14:08:55;;;;;;;;;;;19.40;93.80;;;;;;5020993;28;20003;-70
2023/04/22 14:11:21;;;;;;;;;;;19.40;91.20;;;;;;5018474;28;19972;-66
2023/04/22 14:13:46;;;;;;;;;;;19.50;91.30;;;;;;5015571;28;19917;-69
2023/04/22 14:16:12;;;;;;;;;;;20.20;86.90;;;;;;5022664;28;19924;-67
2023/04/22 14:18:39;;;;;;;;;;;20.60;81.60;;;;;;5022771;28;19999;-69